sensor_id;sensor_type;location;lat;lon;timestamp;P1;durP1;ratioP1;P2;durP2;ratioP2
58152;SDS011;43967;51.634;5.566;2024-03-23T00:54:21;7.28;;;1.88;;
58152;SDS011;43967;51.634;5.566;2024-03-23T00:59:42;6.93;;;2.05;;
58152;SDS011;43967;51.634;5.566;2024-03-23T01:05:03;7.13;;;2.03;;
58152;SDS011;43967;51.634;5.566;2024-03-23T01:10:25;8.00;;;2.00;;
58152;SDS011;43967;51.634;5.566;2024-03-23T01:15:48;7.05;;;1.65;;
58152;SDS011;43967;51.634;5.566;2024-03-23T01:21:09;7.07;;;2.00;;
58152;SDS011;43967;51.634;5.566;2024-03-23T01:26:31;7.17;;;1.90;;
58152;SDS011;43967;51.634;5.566;2024-03-23T01:31:52;6.95;;;1.65;;
58152;SDS011;43967;51.634;5.566;2024-03-23T01:37:13;7.25;;;1.80;;
58152;SDS011;43967;51.634;5.566;2024-03-23T01:42:35;7.00;;;2.03;;
58152;SDS011;43967;51.634;5.566;2024-03-23T01:47:56;6.93;;;1.90;;
58152;SDS011;43967;51.634;5.566;2024-03-23T01:53:17;7.50;;;2.20;;
58152;SDS011;43967;51.634;5.566;2024-03-23T01:58:39;6.83;;;1.80;;
58152;SDS011;43967;51.634;5.566;2024-03-23T02:04:00;7.27;;;1.90;;
58152;SDS011;43967;51.634;5.566;2024-03-23T02:09:21;6.85;;;1.80;;
58152;SDS011;43967;51.634;5.566;2024-03-23T02:14:42;8.50;;;1.90;;
58152;SDS011;43967;51.634;5.566;2024-03-23T02:20:04;7.83;;;1.70;;
58152;SDS011;43967;51.634;5.566;2024-03-23T02:25:25;7.15;;;2.13;;
58152;SDS011;43967;51.634;5.566;2024-03-23T02:30:48;6.35;;;1.77;;
58152;SDS011;43967;51.634;5.566;2024-03-23T02:36:10;8.57;;;1.90;;
58152;SDS011;43967;51.634;5.566;2024-03-23T02:41:31;6.80;;;1.60;;
58152;SDS011;43967;51.634;5.566;2024-03-23T02:46:53;6.25;;;1.55;;
58152;SDS011;43967;51.634;5.566;2024-03-23T02:52:14;6.10;;;1.50;;
58152;SDS011;43967;51.634;5.566;2024-03-23T02:57:35;6.67;;;1.73;;
58152;SDS011;43967;51.634;5.566;2024-03-23T03:02:56;6.75;;;1.80;;
58152;SDS011;43967;51.634;5.566;2024-03-23T03:08:18;6.68;;;1.90;;
58152;SDS011;43967;51.634;5.566;2024-03-23T03:13:41;6.73;;;1.80;;
58152;SDS011;43967;51.634;5.566;2024-03-23T03:19:03;5.95;;;1.50;;
58152;SDS011;43967;51.634;5.566;2024-03-23T03:24:27;6.65;;;1.67;;
58152;SDS011;43967;51.634;5.566;2024-03-23T03:29:48;6.57;;;1.90;;
58152;SDS011;43967;51.634;5.566;2024-03-23T03:35:09;5.97;;;1.70;;
58152;SDS011;43967;51.634;5.566;2024-03-23T03:40:31;6.80;;;1.50;;
58152;SDS011;43967;51.634;5.566;2024-03-23T03:45:52;6.70;;;2.07;;
58152;SDS011;43967;51.634;5.566;2024-03-23T03:51:14;6.67;;;1.70;;
58152;SDS011;43967;51.634;5.566;2024-03-23T03:56:36;7.88;;;2.17;;
58152;SDS011;43967;51.634;5.566;2024-03-23T04:01:57;6.90;;;2.05;;
58152;SDS011;43967;51.634;5.566;2024-03-23T04:07:18;7.37;;;2.00;;
58152;SDS011;43967;51.634;5.566;2024-03-23T04:12:39;6.82;;;2.28;;
58152;SDS011;43967;51.634;5.566;2024-03-23T04:18:01;6.85;;;1.60;;
58152;SDS011;43967;51.634;5.566;2024-03-23T04:23:23;6.30;;;1.60;;
58152;SDS011;43967;51.634;5.566;2024-03-23T04:28:44;6.95;;;1.60;;
58152;SDS011;43967;51.634;5.566;2024-03-23T04:34:05;7.05;;;1.80;;
58152;SDS011;43967;51.634;5.566;2024-03-23T04:39:27;6.33;;;1.80;;
58152;SDS011;43967;51.634;5.566;2024-03-23T04:44:49;6.63;;;1.50;;
58152;SDS011;43967;51.634;5.566;2024-03-23T04:50:10;6.50;;;1.60;;
58152;SDS011;43967;51.634;5.566;2024-03-23T04:55:31;5.97;;;1.38;;
58152;SDS011;43967;51.634;5.566;2024-03-23T05:00:56;5.83;;;1.87;;
58152;SDS011;43967;51.634;5.566;2024-03-23T05:06:18;6.95;;;1.98;;
58152;SDS011;43967;51.634;5.566;2024-03-23T05:11:39;7.20;;;1.60;;
58152;SDS011;43967;51.634;5.566;2024-03-23T05:17:01;6.70;;;1.80;;
58152;SDS011;43967;51.634;5.566;2024-03-23T05:22:22;6.45;;;1.55;;
58152;SDS011;43967;51.634;5.566;2024-03-23T05:27:43;6.32;;;1.60;;
58152;SDS011;43967;51.634;5.566;2024-03-23T05:33:05;7.53;;;1.70;;
58152;SDS011;43967;51.634;5.566;2024-03-23T05:38:26;6.33;;;2.00;;
58152;SDS011;43967;51.634;5.566;2024-03-23T05:43:47;5.65;;;1.42;;
58152;SDS011;43967;51.634;5.566;2024-03-23T05:49:09;6.43;;;1.75;;
58152;SDS011;43967;51.634;5.566;2024-03-23T05:54:31;7.27;;;1.47;;
58152;SDS011;43967;51.634;5.566;2024-03-23T05:59:52;5.80;;;1.50;;
58152;SDS011;43967;51.634;5.566;2024-03-23T06:05:13;7.20;;;1.80;;
58152;SDS011;43967;51.634;5.566;2024-03-23T06:10:34;7.50;;;1.60;;
58152;SDS011;43967;51.634;5.566;2024-03-23T06:15:56;6.80;;;1.70;;
58152;SDS011;43967;51.634;5.566;2024-03-23T06:21:18;7.22;;;1.73;;
58152;SDS011;43967;51.634;5.566;2024-03-23T06:26:39;5.43;;;1.40;;
58152;SDS011;43967;51.634;5.566;2024-03-23T06:32:00;6.83;;;1.50;;
58152;SDS011;43967;51.634;5.566;2024-03-23T06:37:22;6.40;;;1.85;;
58152;SDS011;43967;51.634;5.566;2024-03-23T06:42:43;5.60;;;1.50;;
58152;SDS011;43967;51.634;5.566;2024-03-23T06:48:05;5.77;;;1.40;;
58152;SDS011;43967;51.634;5.566;2024-03-23T06:53:26;6.35;;;1.48;;
58152;SDS011;43967;51.634;5.566;2024-03-23T06:58:47;6.70;;;1.40;;
58152;SDS011;43967;51.634;5.566;2024-03-23T07:04:10;6.97;;;1.60;;
58152;SDS011;43967;51.634;5.566;2024-03-23T07:09:31;7.18;;;1.63;;
58152;SDS011;43967;51.634;5.566;2024-03-23T07:14:52;6.75;;;1.90;;
58152;SDS011;43967;51.634;5.566;2024-03-23T07:20:14;7.17;;;1.90;;
58152;SDS011;43967;51.634;5.566;2024-03-23T07:25:37;9.27;;;2.00;;
58152;SDS011;43967;51.634;5.566;2024-03-23T07:31:08;7.10;;;1.77;;
58152;SDS011;43967;51.634;5.566;2024-03-23T07:36:32;6.30;;;1.63;;
58152;SDS011;43967;51.634;5.566;2024-03-23T07:41:53;7.23;;;1.60;;
58152;SDS011;43967;51.634;5.566;2024-03-23T07:47:14;7.03;;;1.75;;
58152;SDS011;43967;51.634;5.566;2024-03-23T07:52:35;6.85;;;1.45;;
58152;SDS011;43967;51.634;5.566;2024-03-23T07:57:57;8.03;;;1.67;;
58152;SDS011;43967;51.634;5.566;2024-03-23T08:03:18;7.22;;;1.60;;
58152;SDS011;43967;51.634;5.566;2024-03-23T08:08:40;7.80;;;1.58;;
58152;SDS011;43967;51.634;5.566;2024-03-23T08:14:02;5.60;;;1.47;;
58152;SDS011;43967;51.634;5.566;2024-03-23T08:19:24;6.90;;;1.50;;
58152;SDS011;43967;51.634;5.566;2024-03-23T08:24:45;7.93;;;1.75;;
58152;SDS011;43967;51.634;5.566;2024-03-23T08:30:07;10.07;;;1.80;;
58152;SDS011;43967;51.634;5.566;2024-03-23T08:35:28;9.57;;;1.87;;
58152;SDS011;43967;51.634;5.566;2024-03-23T08:41:03;7.78;;;2.03;;
58152;SDS011;43967;51.634;5.566;2024-03-23T08:46:24;6.47;;;1.52;;
58152;SDS011;43967;51.634;5.566;2024-03-23T08:51:46;5.67;;;1.47;;
58152;SDS011;43967;51.634;5.566;2024-03-23T08:57:09;6.60;;;1.58;;
58152;SDS011;43967;51.634;5.566;2024-03-23T09:02:30;6.20;;;1.75;;
58152;SDS011;43967;51.634;5.566;2024-03-23T09:07:51;7.77;;;1.77;;
58152;SDS011;43967;51.634;5.566;2024-03-23T09:13:13;5.77;;;1.40;;
58152;SDS011;43967;51.634;5.566;2024-03-23T09:18:35;6.28;;;1.50;;
58152;SDS011;43967;51.634;5.566;2024-03-23T09:23:57;6.22;;;1.60;;
58152;SDS011;43967;51.634;5.566;2024-03-23T09:29:18;5.47;;;1.17;;
58152;SDS011;43967;51.634;5.566;2024-03-23T09:34:39;5.30;;;1.27;;
58152;SDS011;43967;51.634;5.566;2024-03-23T09:40:00;6.28;;;1.38;;
58152;SDS011;43967;51.634;5.566;2024-03-23T09:45:26;6.93;;;1.30;;
58152;SDS011;43967;51.634;5.566;2024-03-23T09:50:48;5.10;;;1.30;;
58152;SDS011;43967;51.634;5.566;2024-03-23T09:56:09;6.45;;;1.20;;
58152;SDS011;43967;51.634;5.566;2024-03-23T10:01:31;5.77;;;1.60;;
58152;SDS011;43967;51.634;5.566;2024-03-23T10:06:53;6.33;;;1.60;;
58152;SDS011;43967;51.634;5.566;2024-03-23T10:12:15;5.88;;;1.42;;
58152;SDS011;43967;51.634;5.566;2024-03-23T10:17:38;5.97;;;1.42;;
58152;SDS011;43967;51.634;5.566;2024-03-23T10:22:59;6.87;;;1.37;;
58152;SDS011;43967;51.634;5.566;2024-03-23T10:28:21;6.15;;;1.30;;
58152;SDS011;43967;51.634;5.566;2024-03-23T10:33:46;6.55;;;1.40;;
58152;SDS011;43967;51.634;5.566;2024-03-23T10:39:08;5.70;;;1.40;;
58152;SDS011;43967;51.634;5.566;2024-03-23T10:44:30;5.60;;;1.50;;
58152;SDS011;43967;51.634;5.566;2024-03-23T10:49:52;5.55;;;1.58;;
58152;SDS011;43967;51.634;5.566;2024-03-23T10:55:13;5.77;;;1.10;;
58152;SDS011;43967;51.634;5.566;2024-03-23T11:00:37;6.97;;;1.33;;
58152;SDS011;43967;51.634;5.566;2024-03-23T11:05:59;5.53;;;1.23;;
58152;SDS011;43967;51.634;5.566;2024-03-23T11:11:21;6.85;;;1.90;;
58152;SDS011;43967;51.634;5.566;2024-03-23T11:16:42;6.67;;;1.43;;
58152;SDS011;43967;51.634;5.566;2024-03-23T11:22:04;6.38;;;1.50;;
58152;SDS011;43967;51.634;5.566;2024-03-23T11:27:26;7.10;;;1.60;;
58152;SDS011;43967;51.634;5.566;2024-03-23T11:32:47;6.10;;;1.70;;
58152;SDS011;43967;51.634;5.566;2024-03-23T11:38:16;8.27;;;1.50;;
58152;SDS011;43967;51.634;5.566;2024-03-23T11:43:38;6.82;;;1.40;;
58152;SDS011;43967;51.634;5.566;2024-03-23T11:48:59;8.30;;;1.50;;
58152;SDS011;43967;51.634;5.566;2024-03-23T11:54:21;8.00;;;1.53;;
58152;SDS011;43967;51.634;5.566;2024-03-23T11:59:46;6.53;;;1.38;;
58152;SDS011;43967;51.634;5.566;2024-03-23T12:05:14;5.68;;;1.50;;
58152;SDS011;43967;51.634;5.566;2024-03-23T12:10:36;10.13;;;1.77;;
58152;SDS011;43967;51.634;5.566;2024-03-23T12:16:08;6.68;;;1.30;;
58152;SDS011;43967;51.634;5.566;2024-03-23T12:21:30;5.43;;;1.13;;
58152;SDS011;43967;51.634;5.566;2024-03-23T12:26:52;8.37;;;1.30;;
58152;SDS011;43967;51.634;5.566;2024-03-23T12:32:13;7.10;;;1.95;;
58152;SDS011;43967;51.634;5.566;2024-03-23T12:37:35;8.43;;;1.60;;
58152;SDS011;43967;51.634;5.566;2024-03-23T12:42:56;7.73;;;1.60;;
58152;SDS011;43967;51.634;5.566;2024-03-23T12:48:18;8.53;;;1.70;;
58152;SDS011;43967;51.634;5.566;2024-03-23T12:53:39;7.97;;;1.67;;
58152;SDS011;43967;51.634;5.566;2024-03-23T12:59:00;7.57;;;1.50;;
58152;SDS011;43967;51.634;5.566;2024-03-23T13:04:21;10.07;;;1.60;;
58152;SDS011;43967;51.634;5.566;2024-03-23T13:09:43;9.60;;;1.20;;
58152;SDS011;43967;51.634;5.566;2024-03-23T13:15:04;9.02;;;1.40;;
58152;SDS011;43967;51.634;5.566;2024-03-23T13:20:26;10.87;;;1.60;;
58152;SDS011;43967;51.634;5.566;2024-03-23T13:25:51;7.22;;;1.30;;
58152;SDS011;43967;51.634;5.566;2024-03-23T13:31:16;9.02;;;1.10;;
58152;SDS011;43967;51.634;5.566;2024-03-23T13:36:37;8.60;;;1.77;;
58152;SDS011;43967;51.634;5.566;2024-03-23T13:41:58;8.63;;;1.43;;
58152;SDS011;43967;51.634;5.566;2024-03-23T13:47:20;8.48;;;1.80;;
58152;SDS011;43967;51.634;5.566;2024-03-23T13:52:41;9.55;;;1.95;;
58152;SDS011;43967;51.634;5.566;2024-03-23T13:58:02;11.07;;;2.47;;
58152;SDS011;43967;51.634;5.566;2024-03-23T14:03:24;10.05;;;2.47;;
58152;SDS011;43967;51.634;5.566;2024-03-23T14:08:45;10.98;;;2.50;;
58152;SDS011;43967;51.634;5.566;2024-03-23T14:14:06;12.33;;;2.87;;
58152;SDS011;43967;51.634;5.566;2024-03-23T14:19:28;11.20;;;2.65;;
58152;SDS011;43967;51.634;5.566;2024-03-23T14:24:49;10.18;;;2.38;;
58152;SDS011;43967;51.634;5.566;2024-03-23T14:30:10;9.47;;;2.70;;
58152;SDS011;43967;51.634;5.566;2024-03-23T14:35:32;9.10;;;2.47;;
58152;SDS011;43967;51.634;5.566;2024-03-23T14:40:53;9.48;;;2.08;;
58152;SDS011;43967;51.634;5.566;2024-03-23T14:46:19;8.98;;;2.30;;
58152;SDS011;43967;51.634;5.566;2024-03-23T14:51:40;9.70;;;2.13;;
58152;SDS011;43967;51.634;5.566;2024-03-23T14:57:01;11.93;;;2.10;;
58152;SDS011;43967;51.634;5.566;2024-03-23T15:02:23;8.05;;;1.90;;
58152;SDS011;43967;51.634;5.566;2024-03-23T15:07:44;8.63;;;2.00;;
58152;SDS011;43967;51.634;5.566;2024-03-23T15:13:06;8.90;;;1.60;;
58152;SDS011;43967;51.634;5.566;2024-03-23T15:18:27;8.48;;;2.05;;
58152;SDS011;43967;51.634;5.566;2024-03-23T15:23:48;8.33;;;2.27;;
58152;SDS011;43967;51.634;5.566;2024-03-23T15:29:10;8.23;;;2.10;;
58152;SDS011;43967;51.634;5.566;2024-03-23T15:34:31;7.82;;;2.05;;
58152;SDS011;43967;51.634;5.566;2024-03-23T15:39:52;7.28;;;1.77;;
58152;SDS011;43967;51.634;5.566;2024-03-23T15:45:14;8.77;;;1.73;;
58152;SDS011;43967;51.634;5.566;2024-03-23T15:50:35;6.97;;;1.75;;
58152;SDS011;43967;51.634;5.566;2024-03-23T15:55:57;6.20;;;1.35;;
58152;SDS011;43967;51.634;5.566;2024-03-23T16:01:19;6.67;;;1.47;;
58152;SDS011;43967;51.634;5.566;2024-03-23T16:06:41;8.48;;;1.55;;
58152;SDS011;43967;51.634;5.566;2024-03-23T16:12:02;5.95;;;1.55;;
58152;SDS011;43967;51.634;5.566;2024-03-23T16:17:24;6.53;;;1.40;;
58152;SDS011;43967;51.634;5.566;2024-03-23T16:22:45;8.00;;;1.73;;
58152;SDS011;43967;51.634;5.566;2024-03-23T16:28:07;7.20;;;1.58;;
58152;SDS011;43967;51.634;5.566;2024-03-23T16:33:29;6.68;;;1.83;;
58152;SDS011;43967;51.634;5.566;2024-03-23T16:38:51;6.80;;;1.43;;
58152;SDS011;43967;51.634;5.566;2024-03-23T16:44:12;5.57;;;1.20;;
58152;SDS011;43967;51.634;5.566;2024-03-23T16:49:34;44.53;;;9.27;;
58152;SDS011;43967;51.634;5.566;2024-03-23T16:54:55;45.20;;;9.33;;
58152;SDS011;43967;51.634;5.566;2024-03-23T17:00:16;38.53;;;8.48;;
58152;SDS011;43967;51.634;5.566;2024-03-23T17:05:38;30.45;;;7.78;;
58152;SDS011;43967;51.634;5.566;2024-03-23T17:11:00;33.10;;;7.57;;
58152;SDS011;43967;51.634;5.566;2024-03-23T17:16:22;25.90;;;6.60;;
58152;SDS011;43967;51.634;5.566;2024-03-23T17:21:43;27.13;;;6.53;;
58152;SDS011;43967;51.634;5.566;2024-03-23T17:27:04;24.25;;;7.13;;
58152;SDS011;43967;51.634;5.566;2024-03-23T17:32:29;29.87;;;6.80;;
58152;SDS011;43967;51.634;5.566;2024-03-23T17:37:50;20.63;;;6.68;;
58152;SDS011;43967;51.634;5.566;2024-03-23T17:43:11;21.33;;;5.85;;
58152;SDS011;43967;51.634;5.566;2024-03-23T17:48:32;22.63;;;5.80;;
58152;SDS011;43967;51.634;5.566;2024-03-23T17:53:54;19.00;;;4.65;;
58152;SDS011;43967;51.634;5.566;2024-03-23T17:59:15;17.23;;;5.00;;
58152;SDS011;43967;51.634;5.566;2024-03-23T18:04:36;18.70;;;4.80;;
58152;SDS011;43967;51.634;5.566;2024-03-23T18:09:58;21.63;;;4.43;;
58152;SDS011;43967;51.634;5.566;2024-03-23T18:15:19;20.95;;;4.80;;
58152;SDS011;43967;51.634;5.566;2024-03-23T18:20:40;19.58;;;3.95;;
58152;SDS011;43967;51.634;5.566;2024-03-23T18:26:01;20.53;;;5.30;;
58152;SDS011;43967;51.634;5.566;2024-03-23T18:31:23;14.48;;;4.60;;
58152;SDS011;43967;51.634;5.566;2024-03-23T18:36:44;15.98;;;4.05;;
58152;SDS011;43967;51.634;5.566;2024-03-23T18:42:05;16.10;;;3.80;;
58152;SDS011;43967;51.634;5.566;2024-03-23T18:47:26;12.77;;;3.42;;
58152;SDS011;43967;51.634;5.566;2024-03-23T18:52:48;13.52;;;3.42;;
58152;SDS011;43967;51.634;5.566;2024-03-23T18:58:09;13.17;;;3.40;;
58152;SDS011;43967;51.634;5.566;2024-03-23T19:03:31;14.17;;;3.17;;
58152;SDS011;43967;51.634;5.566;2024-03-23T19:08:55;12.18;;;3.47;;
58152;SDS011;43967;51.634;5.566;2024-03-23T19:14:16;14.68;;;3.40;;
58152;SDS011;43967;51.634;5.566;2024-03-23T19:19:37;15.63;;;3.30;;
58152;SDS011;43967;51.634;5.566;2024-03-23T19:24:59;14.52;;;3.47;;
58152;SDS011;43967;51.634;5.566;2024-03-23T19:30:20;14.43;;;2.97;;
58152;SDS011;43967;51.634;5.566;2024-03-23T19:35:41;16.23;;;3.07;;
58152;SDS011;43967;51.634;5.566;2024-03-23T19:41:03;13.95;;;2.97;;
58152;SDS011;43967;51.634;5.566;2024-03-23T19:46:24;11.48;;;3.03;;
58152;SDS011;43967;51.634;5.566;2024-03-23T19:51:45;12.73;;;2.80;;
58152;SDS011;43967;51.634;5.566;2024-03-23T19:57:07;12.83;;;2.93;;
58152;SDS011;43967;51.634;5.566;2024-03-23T20:02:28;13.82;;;3.05;;
58152;SDS011;43967;51.634;5.566;2024-03-23T20:07:49;10.63;;;2.97;;
58152;SDS011;43967;51.634;5.566;2024-03-23T20:13:11;16.37;;;2.97;;
58152;SDS011;43967;51.634;5.566;2024-03-23T20:18:32;13.30;;;3.22;;
58152;SDS011;43967;51.634;5.566;2024-03-23T20:23:53;11.90;;;3.05;;
58152;SDS011;43967;51.634;5.566;2024-03-23T20:29:14;14.63;;;2.97;;
58152;SDS011;43967;51.634;5.566;2024-03-23T20:34:36;12.95;;;3.00;;
58152;SDS011;43967;51.634;5.566;2024-03-23T20:39:57;14.43;;;2.97;;
58152;SDS011;43967;51.634;5.566;2024-03-23T20:45:18;13.87;;;2.80;;
58152;SDS011;43967;51.634;5.566;2024-03-23T20:50:39;16.40;;;3.63;;
58152;SDS011;43967;51.634;5.566;2024-03-23T20:56:01;14.48;;;2.53;;
58152;SDS011;43967;51.634;5.566;2024-03-23T21:01:22;15.68;;;2.78;;
58152;SDS011;43967;51.634;5.566;2024-03-23T21:06:44;13.17;;;2.73;;
58152;SDS011;43967;51.634;5.566;2024-03-23T21:12:05;13.98;;;3.08;;
58152;SDS011;43967;51.634;5.566;2024-03-23T21:17:27;15.10;;;2.47;;
58152;SDS011;43967;51.634;5.566;2024-03-23T21:22:51;13.27;;;2.73;;
58152;SDS011;43967;51.634;5.566;2024-03-23T21:28:12;13.68;;;3.00;;
58152;SDS011;43967;51.634;5.566;2024-03-23T21:33:33;15.63;;;3.10;;
58152;SDS011;43967;51.634;5.566;2024-03-23T21:38:55;11.80;;;3.07;;
58152;SDS011;43967;51.634;5.566;2024-03-23T21:44:16;11.50;;;2.87;;
58152;SDS011;43967;51.634;5.566;2024-03-23T22:06:08;12.73;;;2.97;;
58152;SDS011;43967;51.634;5.566;2024-03-23T22:11:30;10.73;;;2.73;;
58152;SDS011;43967;51.634;5.566;2024-03-23T22:16:51;14.30;;;3.75;;
58152;SDS011;43967;51.634;5.566;2024-03-23T22:22:12;18.85;;;3.50;;
58152;SDS011;43967;51.634;5.566;2024-03-23T22:27:34;16.17;;;3.20;;
58152;SDS011;43967;51.634;5.566;2024-03-23T22:32:55;16.17;;;3.38;;
58152;SDS011;43967;51.634;5.566;2024-03-23T22:38:16;20.10;;;3.33;;
58152;SDS011;43967;51.634;5.566;2024-03-23T22:43:37;14.37;;;3.27;;
58152;SDS011;43967;51.634;5.566;2024-03-23T22:48:59;18.65;;;3.53;;
58152;SDS011;43967;51.634;5.566;2024-03-23T22:54:20;18.15;;;3.22;;
58152;SDS011;43967;51.634;5.566;2024-03-23T22:59:41;12.10;;;2.97;;
58152;SDS011;43967;51.634;5.566;2024-03-23T23:05:03;15.13;;;3.00;;
58152;SDS011;43967;51.634;5.566;2024-03-23T23:10:24;17.88;;;3.38;;
58152;SDS011;43967;51.634;5.566;2024-03-23T23:15:45;15.82;;;3.58;;
58152;SDS011;43967;51.634;5.566;2024-03-23T23:21:06;13.03;;;2.67;;
58152;SDS011;43967;51.634;5.566;2024-03-23T23:26:28;9.70;;;2.50;;
58152;SDS011;43967;51.634;5.566;2024-03-23T23:31:49;8.88;;;2.40;;
58152;SDS011;43967;51.634;5.566;2024-03-23T23:37:10;8.53;;;2.50;;
58152;SDS011;43967;51.634;5.566;2024-03-23T23:42:32;16.05;;;3.05;;
58152;SDS011;43967;51.634;5.566;2024-03-23T23:47:53;9.23;;;2.60;;
58152;SDS011;43967;51.634;5.566;2024-03-23T23:53:14;8.33;;;2.47;;
58152;SDS011;43967;51.634;5.566;2024-03-23T23:58:35;7.40;;;2.43;;
